createdAt,value
2024-02-24T00:00:24.328Z,19.20
2024-02-24T00:02:52.527Z,16.90
2024-02-24T00:05:20.798Z,15.50
2024-02-24T00:07:50.178Z,19.52
2024-02-24T00:10:19.037Z,24.08
2024-02-24T00:12:47.328Z,29.17
2024-02-24T00:15:15.686Z,25.45
2024-02-24T00:17:44.346Z,24.13
2024-02-24T00:20:13.066Z,21.95
2024-02-24T00:22:41.524Z,25.00
2024-02-24T00:25:09.734Z,24.42
2024-02-24T00:27:39.417Z,23.23
2024-02-24T00:30:10.726Z,20.00
2024-02-24T00:32:42.495Z,21.02
2024-02-24T00:35:10.757Z,16.25
2024-02-24T00:37:38.909Z,19.15
2024-02-24T00:40:08.742Z,22.35
2024-02-24T00:42:38.492Z,27.35
2024-02-24T00:47:55.439Z,50.58
2024-02-24T00:50:29.777Z,45.20
2024-02-24T00:52:58.209Z,47.03
2024-02-24T00:55:26.507Z,51.88
2024-02-24T00:57:58.827Z,48.05
2024-02-24T01:00:27.024Z,82.63
2024-02-24T01:02:55.294Z,50.97
2024-02-24T01:05:23.479Z,26.73
2024-02-24T01:07:57.197Z,29.33
2024-02-24T01:10:30.002Z,27.35
2024-02-24T01:12:58.273Z,22.05
2024-02-24T01:15:26.700Z,20.38
2024-02-24T01:17:58.187Z,26.73
2024-02-24T01:20:30.630Z,23.17
2024-02-24T01:23:01.409Z,25.67
2024-02-24T01:25:29.913Z,28.85
2024-02-24T01:28:01.344Z,26.23
2024-02-24T01:30:29.591Z,25.02
2024-02-24T01:32:57.988Z,24.55
2024-02-24T01:35:26.350Z,28.38
2024-02-24T01:37:54.548Z,23.65
2024-02-24T01:40:22.780Z,24.98
2024-02-24T01:42:50.944Z,28.85
2024-02-24T01:45:19.218Z,43.70
2024-02-24T01:47:47.799Z,33.30
2024-02-24T01:50:16.677Z,34.60
2024-02-24T01:52:50.654Z,36.13
2024-02-24T01:55:20.060Z,59.47
2024-02-24T01:57:52.003Z,53.60
2024-02-24T02:00:20.290Z,52.28
2024-02-24T02:02:49.063Z,24.38
2024-02-24T02:05:17.468Z,25.80
2024-02-24T02:07:45.663Z,20.42
2024-02-24T02:10:13.883Z,19.40
2024-02-24T02:12:45.086Z,19.95
2024-02-24T02:15:13.471Z,19.67
2024-02-24T02:17:41.769Z,19.35
2024-02-24T02:20:10.462Z,18.33
2024-02-24T02:22:38.687Z,18.30
2024-02-24T02:25:07.087Z,15.70
2024-02-24T02:27:35.316Z,18.73
2024-02-24T02:30:04.633Z,16.55
2024-02-24T02:32:33.269Z,18.05
2024-02-24T02:35:01.503Z,18.67
2024-02-24T02:37:29.621Z,18.10
2024-02-24T02:39:57.832Z,18.13
2024-02-24T02:42:26.018Z,16.95
2024-02-24T02:44:54.193Z,19.10
2024-02-24T02:47:24.189Z,19.92
2024-02-24T02:49:52.879Z,18.30
2024-02-24T02:52:24.575Z,14.02
2024-02-24T02:54:52.785Z,16.23
2024-02-24T02:57:21.019Z,30.17
2024-02-24T02:59:49.350Z,26.92
2024-02-24T03:02:17.660Z,19.48
2024-02-24T03:04:45.989Z,15.00
2024-02-24T03:07:14.199Z,15.50
2024-02-24T03:09:48.181Z,17.25
2024-02-24T03:12:17.069Z,17.90
2024-02-24T03:14:45.841Z,20.38
2024-02-24T03:17:14.215Z,20.60
2024-02-24T03:19:42.568Z,18.20
2024-02-24T03:22:10.784Z,17.55
2024-02-24T03:24:45.319Z,14.93
2024-02-24T03:27:13.641Z,14.40
2024-02-24T03:29:42.065Z,16.08
2024-02-24T03:32:11.635Z,15.65
2024-02-24T03:34:40.608Z,14.57
2024-02-24T03:37:08.935Z,16.02
2024-02-24T03:39:39.250Z,15.30
2024-02-24T03:42:07.567Z,20.33
2024-02-24T03:44:35.833Z,21.85
2024-02-24T03:47:04.073Z,16.48
2024-02-24T03:49:32.390Z,16.25
2024-02-24T03:52:00.624Z,18.50
2024-02-24T03:54:28.943Z,18.40
2024-02-24T03:56:57.190Z,22.77
2024-02-24T03:59:25.507Z,18.73
2024-02-24T04:01:53.876Z,19.73
2024-02-24T04:04:22.070Z,17.35
2024-02-24T04:06:50.334Z,16.30
2024-02-24T04:09:21.591Z,22.67
2024-02-24T04:11:52.080Z,20.27
2024-02-24T04:14:20.875Z,17.35
2024-02-24T04:16:49.182Z,17.85
2024-02-24T04:19:17.424Z,19.02
2024-02-24T04:21:46.238Z,18.52
2024-02-24T04:24:14.482Z,20.70
2024-02-24T04:26:43.085Z,22.00
2024-02-24T04:29:11.331Z,15.88
2024-02-24T04:31:41.252Z,18.42
2024-02-24T04:34:09.593Z,16.05
2024-02-24T04:36:44.325Z,20.88
2024-02-24T04:39:12.499Z,18.83
2024-02-24T04:41:40.987Z,18.73
2024-02-24T04:44:09.379Z,20.98
2024-02-24T04:46:39.752Z,21.25
2024-02-24T04:49:08.154Z,22.20
2024-02-24T04:51:36.446Z,21.90
2024-02-24T04:54:05.573Z,21.13
2024-02-24T04:56:33.771Z,22.08
2024-02-24T04:59:02.054Z,20.58
2024-02-24T05:01:30.483Z,23.42
2024-02-24T05:03:59.059Z,22.88
2024-02-24T05:06:30.086Z,23.13
2024-02-24T05:08:58.406Z,23.48
2024-02-24T05:11:26.861Z,20.05
2024-02-24T05:13:55.053Z,21.83
2024-02-24T05:16:23.307Z,21.40
2024-02-24T05:18:51.563Z,22.48
2024-02-24T05:21:23.530Z,20.75
2024-02-24T05:23:51.896Z,22.02
2024-02-24T05:26:27.560Z,21.98
2024-02-24T05:28:56.873Z,19.00
2024-02-24T05:31:25.183Z,17.60
2024-02-24T05:33:55.009Z,21.17
2024-02-24T05:36:23.281Z,18.40
2024-02-24T05:38:51.503Z,21.02
2024-02-24T05:41:22.682Z,24.60
2024-02-24T05:43:53.265Z,23.08
2024-02-24T05:46:21.539Z,24.75
2024-02-24T05:48:49.882Z,23.42
2024-02-24T05:51:19.441Z,25.25
2024-02-24T05:53:47.667Z,26.50
2024-02-24T05:56:15.932Z,19.67
2024-02-24T05:58:44.373Z,24.27
2024-02-24T06:01:15.837Z,22.48
2024-02-24T06:03:44.272Z,28.45
2024-02-24T06:06:12.822Z,23.80
2024-02-24T06:08:41.547Z,23.58
2024-02-24T06:11:09.877Z,22.60
2024-02-24T06:13:38.156Z,19.77
2024-02-24T06:16:07.169Z,23.00
2024-02-24T06:18:35.455Z,20.38
2024-02-24T06:21:04.578Z,25.30
2024-02-24T06:23:34.032Z,26.08
2024-02-24T06:26:02.204Z,24.60
2024-02-24T06:28:30.359Z,20.38
2024-02-24T06:30:59.601Z,20.73
2024-02-24T06:33:27.958Z,23.88
2024-02-24T06:35:56.417Z,25.10
2024-02-24T06:38:27.566Z,23.38
2024-02-24T06:40:55.824Z,24.58
2024-02-24T06:43:24.074Z,24.17
2024-02-24T06:45:52.245Z,25.23
2024-02-24T06:48:20.887Z,25.30
2024-02-24T06:50:49.278Z,26.92
2024-02-24T06:53:17.581Z,24.48
2024-02-24T06:55:45.885Z,21.52
2024-02-24T06:58:14.116Z,23.40
2024-02-24T07:00:47.354Z,26.48
2024-02-24T07:03:16.393Z,25.25
2024-02-24T07:05:46.521Z,27.25
2024-02-24T07:08:14.886Z,24.15
2024-02-24T07:10:43.149Z,26.88
2024-02-24T07:13:11.339Z,25.88
2024-02-24T07:15:39.935Z,27.75
2024-02-24T07:18:08.389Z,30.27
2024-02-24T07:20:40.511Z,23.65
2024-02-24T07:23:08.879Z,24.88
2024-02-24T07:25:38.556Z,23.45
2024-02-24T07:28:07.623Z,24.13
2024-02-24T07:30:35.764Z,25.85
2024-02-24T07:33:04.662Z,20.55
2024-02-24T07:35:36.094Z,27.52
2024-02-24T07:38:04.620Z,23.30
2024-02-24T07:40:35.133Z,25.27
2024-02-24T07:43:03.629Z,21.48
2024-02-24T07:45:31.852Z,23.10
2024-02-24T07:48:00.087Z,23.25
2024-02-24T07:50:28.582Z,22.30
2024-02-24T07:52:57.197Z,25.58
2024-02-24T07:55:25.334Z,24.98
2024-02-24T07:57:53.854Z,25.65
2024-02-24T08:00:23.734Z,28.52
2024-02-24T08:02:57.112Z,23.88
2024-02-24T08:05:25.794Z,20.80
2024-02-24T08:07:54.030Z,19.50
2024-02-24T08:10:22.230Z,21.38
2024-02-24T08:12:50.483Z,26.77
2024-02-24T08:15:19.394Z,18.38
2024-02-24T08:17:47.697Z,22.38
2024-02-24T08:20:16.134Z,19.42
2024-02-24T08:22:46.990Z,16.08
2024-02-24T08:25:15.155Z,22.92
2024-02-24T08:27:43.400Z,20.70
2024-02-24T08:30:13.171Z,18.15
2024-02-24T08:32:41.521Z,19.92
2024-02-24T08:35:10.185Z,14.15
2024-02-24T08:37:38.579Z,18.55
2024-02-24T08:40:07.398Z,21.38
2024-02-24T08:42:35.656Z,20.50
2024-02-24T08:45:05.906Z,20.38
2024-02-24T08:47:34.302Z,21.45
2024-02-24T08:50:02.634Z,22.25
2024-02-24T08:52:38.050Z,20.48
2024-02-24T08:55:14.265Z,24.92
2024-02-24T08:57:42.509Z,23.75
2024-02-24T09:00:11.413Z,22.20
2024-02-24T09:02:39.918Z,26.27
2024-02-24T09:05:09.011Z,24.60
2024-02-24T09:07:40.065Z,23.20
2024-02-24T09:10:09.552Z,29.15
2024-02-24T09:12:37.932Z,29.98
2024-02-24T09:15:07.498Z,26.85
2024-02-24T09:17:35.852Z,29.55
2024-02-24T09:20:04.767Z,27.77
2024-02-24T09:22:33.079Z,27.33
2024-02-24T09:25:02.618Z,24.50
2024-02-24T09:27:30.933Z,31.02
2024-02-24T09:29:59.384Z,27.02
2024-02-24T09:32:27.867Z,27.80
2024-02-24T09:34:56.167Z,22.88
2024-02-24T09:37:24.378Z,25.60
2024-02-24T09:39:52.589Z,27.30
2024-02-24T09:42:26.414Z,21.45
2024-02-24T09:45:00.659Z,26.70
2024-02-24T09:47:30.446Z,20.42
2024-02-24T09:50:00.660Z,19.60
2024-02-24T09:52:32.094Z,21.83
2024-02-24T09:55:00.544Z,16.65
2024-02-24T09:57:33.968Z,15.02
2024-02-24T10:00:03.522Z,18.25
2024-02-24T10:02:40.868Z,21.33
2024-02-24T10:05:12.217Z,15.20
2024-02-24T10:07:41.029Z,14.27
2024-02-24T10:10:11.909Z,12.02
2024-02-24T10:12:40.146Z,11.82
2024-02-24T10:15:09.146Z,11.40
2024-02-24T10:17:39.907Z,18.20
2024-02-24T10:20:09.915Z,12.82
2024-02-24T10:22:40.947Z,12.80
2024-02-24T10:25:09.368Z,11.20
2024-02-24T10:27:37.738Z,9.40
2024-02-24T10:30:10.098Z,13.48
2024-02-24T10:32:40.760Z,13.45
2024-02-24T10:35:10.065Z,16.48
2024-02-24T10:37:56.431Z,14.80
2024-02-24T10:40:26.697Z,12.80
2024-02-24T10:42:56.003Z,10.63
2024-02-24T10:45:25.940Z,15.02
2024-02-24T10:47:54.225Z,10.73
2024-02-24T10:50:22.538Z,11.50
2024-02-24T10:52:52.371Z,11.70
2024-02-24T10:55:24.035Z,13.85
2024-02-24T10:57:56.053Z,13.30
2024-02-24T11:00:32.010Z,13.73
2024-02-24T11:03:01.933Z,14.93
2024-02-24T11:05:30.509Z,14.63
2024-02-24T11:07:59.010Z,14.15
2024-02-24T11:10:34.637Z,15.70
2024-02-24T11:13:03.801Z,20.33
2024-02-24T11:15:33.395Z,21.70
2024-02-24T11:18:01.817Z,23.98
2024-02-24T11:20:38.465Z,22.55
2024-02-24T11:23:23.423Z,17.35
2024-02-24T11:26:17.504Z,19.83
2024-02-24T11:29:00.163Z,17.67
2024-02-24T11:31:35.529Z,20.50
2024-02-24T11:34:12.328Z,19.33
2024-02-24T11:36:42.904Z,17.55
2024-02-24T11:39:13.619Z,20.65
2024-02-24T11:41:42.574Z,15.70
2024-02-24T11:44:12.147Z,15.77
2024-02-24T11:46:45.037Z,14.88
2024-02-24T11:49:13.390Z,13.02
2024-02-24T11:51:44.440Z,12.65
2024-02-24T11:54:14.124Z,16.17
2024-02-24T11:56:42.731Z,12.13
2024-02-24T11:59:11.174Z,8.35
2024-02-24T12:01:39.475Z,16.10
2024-02-24T12:04:07.948Z,8.15
2024-02-24T12:06:36.244Z,9.27
2024-02-24T12:09:04.739Z,7.53
2024-02-24T12:11:36.501Z,9.65
2024-02-24T12:14:04.848Z,5.93
2024-02-24T12:16:33.491Z,12.73
2024-02-24T12:19:06.825Z,8.68
2024-02-24T12:24:03.169Z,8.65
2024-02-24T12:26:31.640Z,9.30
2024-02-24T12:28:59.855Z,9.55
2024-02-24T12:31:28.340Z,8.82
2024-02-24T12:33:59.484Z,9.15
2024-02-24T12:36:32.388Z,12.35
2024-02-24T12:39:00.729Z,13.38
2024-02-24T12:41:31.314Z,16.17
2024-02-24T12:43:59.523Z,8.30
2024-02-24T12:46:27.699Z,14.68
2024-02-24T12:48:56.298Z,14.35
2024-02-24T12:51:27.493Z,16.08
2024-02-24T12:53:55.761Z,12.80
2024-02-24T12:56:24.034Z,11.38
2024-02-24T12:58:52.328Z,14.77
2024-02-24T13:01:20.671Z,14.32
2024-02-24T13:03:49.690Z,15.48
2024-02-24T13:06:18.115Z,19.73
2024-02-24T13:08:47.419Z,16.00
2024-02-24T13:11:15.831Z,16.52
2024-02-24T13:13:44.368Z,17.10
2024-02-24T13:16:12.661Z,17.27
2024-02-24T13:18:41.123Z,16.15
2024-02-24T13:21:09.759Z,12.50
2024-02-24T13:23:37.886Z,12.50
2024-02-24T13:26:06.073Z,16.83
2024-02-24T13:28:34.591Z,11.13
2024-02-24T13:31:02.764Z,16.65
2024-02-24T13:33:31.427Z,11.75
2024-02-24T13:36:00.180Z,15.55
2024-02-24T13:38:28.607Z,13.52
2024-02-24T13:40:56.978Z,14.55
2024-02-24T13:43:25.182Z,14.27
2024-02-24T13:45:57.170Z,18.88
2024-02-24T13:48:28.305Z,26.08
2024-02-24T13:50:56.772Z,25.95
2024-02-24T13:53:24.941Z,27.60
2024-02-24T13:55:53.190Z,19.45
2024-02-24T13:58:21.397Z,18.27
2024-02-24T14:00:49.675Z,19.50
2024-02-24T14:03:17.853Z,11.30
2024-02-24T14:05:49.445Z,16.27
2024-02-24T14:08:17.762Z,14.20
2024-02-24T14:10:45.981Z,13.90
2024-02-24T14:13:14.233Z,12.90
2024-02-24T14:15:47.934Z,17.95
2024-02-24T14:18:16.282Z,14.68
2024-02-24T14:20:44.652Z,18.55
2024-02-24T14:23:12.911Z,15.48
2024-02-24T14:25:41.590Z,16.50
2024-02-24T14:28:13.635Z,18.27
2024-02-24T14:30:44.075Z,12.80
2024-02-24T14:33:12.909Z,17.05
2024-02-24T14:35:42.867Z,17.15
2024-02-24T14:38:11.149Z,18.08
2024-02-24T14:40:39.371Z,18.33
2024-02-24T14:43:07.551Z,18.45
2024-02-24T14:45:35.726Z,19.08
2024-02-24T14:48:06.263Z,72.07
2024-02-24T14:50:34.878Z,79.22
2024-02-24T14:53:03.260Z,39.78
2024-02-24T14:55:31.460Z,25.98
2024-02-24T14:57:59.647Z,20.67
2024-02-24T15:00:28.452Z,20.58
2024-02-24T15:03:08.676Z,16.75
2024-02-24T15:05:39.224Z,17.55
2024-02-24T15:08:07.888Z,20.38
2024-02-24T15:10:36.064Z,23.63
2024-02-24T15:13:05.276Z,17.77
2024-02-24T15:15:33.571Z,16.88
2024-02-24T15:18:04.610Z,18.00
2024-02-24T15:20:33.741Z,18.58
2024-02-24T15:23:02.071Z,20.23
2024-02-24T15:25:30.159Z,18.38
2024-02-24T15:27:59.916Z,18.30
2024-02-24T15:30:28.143Z,16.60
2024-02-24T15:32:59.352Z,18.52
2024-02-24T15:35:27.911Z,19.95
2024-02-24T15:37:56.194Z,18.63
2024-02-24T15:40:42.849Z,22.33
2024-02-24T15:43:11.049Z,18.65
2024-02-24T15:45:39.187Z,21.75
2024-02-24T15:48:09.282Z,13.43
2024-02-24T15:50:37.585Z,15.25
2024-02-24T15:53:05.851Z,14.68
2024-02-24T15:55:33.990Z,15.95
2024-02-24T15:58:02.609Z,17.73
2024-02-24T16:00:33.718Z,18.23
2024-02-24T16:03:04.893Z,16.38
2024-02-24T16:05:33.679Z,18.10
2024-02-24T16:08:02.062Z,18.90
2024-02-24T16:10:30.406Z,16.83
2024-02-24T16:12:58.913Z,15.35
2024-02-24T16:15:27.299Z,16.05
2024-02-24T16:18:14.686Z,16.65
2024-02-24T16:20:44.571Z,16.20
2024-02-24T16:23:15.121Z,16.27
2024-02-24T16:25:43.460Z,16.23
2024-02-24T16:28:14.786Z,17.25
2024-02-24T16:30:43.109Z,11.93
2024-02-24T16:33:11.405Z,15.80
2024-02-24T16:35:39.703Z,20.70
2024-02-24T16:38:07.941Z,17.75
2024-02-24T16:40:36.149Z,14.65
2024-02-24T16:43:04.620Z,14.80
2024-02-24T16:45:32.916Z,17.10
2024-02-24T16:48:01.510Z,18.75
2024-02-24T16:50:29.901Z,18.33
2024-02-24T16:52:58.185Z,19.30
2024-02-24T16:55:26.346Z,15.32
2024-02-24T16:57:54.511Z,19.98
2024-02-24T17:00:22.957Z,14.52
2024-02-24T17:02:51.235Z,15.60
2024-02-24T17:05:21.987Z,19.08
2024-02-24T17:07:52.413Z,17.02
2024-02-24T17:10:20.627Z,16.98
2024-02-24T17:12:49.101Z,13.85
2024-02-24T17:15:17.332Z,17.45
2024-02-24T17:17:47.488Z,20.45
2024-02-24T17:20:16.552Z,17.35
2024-02-24T17:22:44.828Z,15.40
2024-02-24T17:25:13.042Z,20.35
2024-02-24T17:27:41.255Z,25.00
2024-02-24T17:30:10.133Z,21.40
